Reno (UNR), Valley Road, Nevada Weather observations

Data are for observation ending at time listed.
 Day   Time    Ave.   Ave.  Ave.  Vector   Max.    Total    Solar   Rl      Baro.   Ave.  
  of    of     Air    Rel.  Wind   Wind    Wind   Precip.   Rad.    in      Pres.   Soil  
Year   Day     Temp.  Hum.  Speed  Dir.    Gust                                     Temp. 
2016   (PST)    F      %     mph   deg.    mph      in.     W/m2    W/m2     mb.     F   
-----------------------------------------------------------------------------------------
 205    8:20   75.4    20    1.4   216      4.8     0.00     634     354    859.7   75.2
 205    8:30   74.2    22    1.2   345      3.5     0.00     666     357    859.6   75.3
 205    8:40   75.6    20    2.0   140      4.8     0.00     695     359    859.4   75.5
 205    8:50   76.6    19    1.0   191      3.3     0.00     725     359    859.3   75.7
 205    9:00   76.9    20    2.0   124      4.6     0.00     753     364    859.0   75.8
 205    9:10   77.1    19    1.8   109      6.2     0.00     781     366    858.8   76.0
 205    9:20   77.9    19    1.9    96      5.4     0.00     809     368    858.5   76.2
 205    9:30   78.7    18    2.2   108      5.1     0.00     836     369    858.2   76.4
 205    9:40   79.0    17    1.1    58      3.7     0.00     860     370    858.1   76.6
 205    9:50   80.3    17    1.6    78      4.1     0.00     881     375    857.9   76.7
 205   10:00   80.7    16    1.6    66      4.7     0.00     903     376    857.8   76.9
 205   10:10   81.1    16    1.5    32      4.0     0.00     922     378    857.6   76.9
 205   10:20   81.4    16    3.6    85      6.8     0.00     944     382    857.3   77.0
 205   10:30   81.5    16    3.1    54      7.1     0.00     958     381    857.1   77.1
 205   10:40   81.8    16    2.7   314      6.4     0.00     973     382    856.9   77.3
 205   10:50   83.5    16    2.9   266      5.8     0.00     988     383    856.7   77.4
 205   11:00   84.4    14    3.6   218      7.9     0.00    1001     385    856.4   77.6
 205   11:10   85.5    14    3.4   207      6.8     0.00    1012     386    856.1   77.8
 205   11:20   85.2    13    4.0   211      8.6     0.00    1022     388    855.9   78.0
 205   11:30   85.0    13    3.5   147      8.2     0.00    1030     387    855.7   78.3
 205   11:40   87.0    12    3.5   202      8.5     0.00    1036     393    855.5   78.6
 205   11:50   86.9    13    2.7   270      5.6     0.00    1040     391    855.4   78.9
 205   12:00   85.4    15    3.4     5      6.3     0.00    1043     394    855.2   79.2
 205   12:10   85.6    14    3.8   327      8.0     0.00    1046     394    855.0   79.6
 205   12:20   86.6    13    3.9   309     10.8     0.00    1048     395    854.8   79.9
 205   12:30   86.9    13    2.5    41      6.3     0.00    1045     394    854.7   80.3
 205   12:40   87.7    13    3.9    65      9.1     0.00    1043     400    854.6   80.6
 205   12:50   88.5    12    2.4   306      5.6     0.00    1035     397    854.3   81.0
 205   13:00   88.7    13    3.6    45      7.3     0.00    1025     402    854.1   81.3
 205   13:10   88.2    13    4.6    32     10.3     0.00    1015     403    854.0   81.7
 205   13:20   88.9    12    3.8    73      7.8     0.00    1004     401    853.8   82.0
 205   13:30   89.8    11    3.5    90     10.8     0.00     989     404    853.6   82.2
 205   13:40   89.2    13    5.9    24     10.5     0.00     974     405    853.3   82.5
 205   13:50   89.8    11    3.3   120      9.1     0.00     960     402    853.2   82.7
 205   14:00   91.7    10    3.5    37      7.5     0.00     936     409    853.1   82.9
 205   14:10   91.4    10    3.3   225      6.7     0.00     926     407    852.9   83.1
 205   14:20   91.4    11    4.2   346      8.1     0.00     906     409    852.7   83.2
 205   14:30   91.1    11    4.3    67     12.5     0.00     881     410    852.5   83.4
 205   14:40   93.1    10    1.9   203      6.2     0.00     859     407    852.3   83.6
 205   14:50   92.0    12    5.4    27     11.7     0.00     835     412    852.1   83.8
 205   15:00   91.7    12    6.3    56     12.0     0.00     810     413    852.0   84.0
 205   15:10   91.0    12    4.1    36      7.4     0.00     783     408    851.9   84.2
 205   15:20   94.2    10    1.8   266      3.8     0.00     755     409    851.7   84.4
 205   15:30   93.9    11    4.2   108     10.2     0.00     725     417    851.6   84.5
 205   15:40   93.0    11    5.1   112     11.7     0.00     695     415    851.5   84.7
 205   15:50   91.8    12    3.6   356      9.0     0.00     664     411    851.4   84.9
 205   16:00   93.3    11    4.2    94     11.3     0.00     633     414    851.2   85.1
 205   16:10   92.1    12    5.4    46      9.7     0.00     602     412    851.2   85.2
 205   16:20   92.5    11    3.0    61      6.4     0.00     571     408    851.1   85.4
 205   16:30   92.4    11    4.5   102     10.8     0.00     536     408    851.1   85.6
 205   16:40   92.0    12    4.8    62     10.4     0.00     503     408    851.0   85.7
 205   16:50   91.1    12    6.6    48     11.5     0.00     469     404    851.0   85.8
 205   17:00   91.5    11    4.0    87      7.9     0.00     436     405    851.0   85.9
 205   17:10   91.8    11    4.8    89      9.6     0.00     401     406    850.9   86.0
 205   17:20   91.7    12    4.3    73      9.1     0.00     368     403    850.9   86.1
 205   17:30   90.3    12    7.2    21     13.2     0.00     334     401    850.9   86.2
 205   17:40   88.9    13    7.0     7     10.6     0.00     299     397    850.9   86.3
 205   17:50   88.8    13    6.7    20     11.8     0.00     264     394    851.0   86.3
 205   18:00   88.5    13    6.8    27     13.6     0.00     232     393    851.1   86.3
 205   18:10   88.0    13    6.2    25     10.1     0.00     199     389    851.2   86.4
 205   18:20   87.5    13    7.9    19     12.7     0.00     168     390    851.3   86.4
 205   18:30   86.8    13    7.0    18     11.8     0.00     139     390    851.4   86.3
 205   18:40   85.8    13    6.7     6     11.0     0.00     110     386    851.6   86.3
 205   18:50   84.9    13    7.5     0     12.0     0.00      67     384    851.8   86.3
 205   19:00   83.3    14    7.1   360     12.6     0.00      15     380    852.0   86.2
 205   19:10   82.5    14    5.8   359     10.2     0.00      11     380    852.3   86.1
 205   19:20   81.8    14    5.4   357      9.7     0.00       6     376    852.7   86.0
 205   19:30   81.0    14    5.0   356      8.4     0.00       3     373    853.0   85.9
 205   19:40   80.9    13    5.4   357      8.6     0.00       1     373    853.3   85.8
 205   19:50   80.9    13    5.4   341      8.0     0.00       0     372    853.5   85.7
 205   20:00   80.1    13    6.3   327      9.4     0.00       0     371    853.8   85.6
 205   20:10   79.4    13    6.0   325      8.6     0.00       0     370    854.0   85.4
 205   20:20   78.7    13    4.8   326      7.5     0.00       0     367    854.3   85.3
 205   20:30   78.4    13    5.4   316      9.3     0.00       0     364    854.5   85.1
 205   20:40   77.9    13    4.4   321      8.1     0.00       0     363    854.8   85.0
 205   20:50   78.0    13    3.6   273      5.9     0.00       0     362    855.0   84.8
 205   21:00   77.4    13    4.0   246      6.1     0.00       0     359    855.2   84.6
 205   21:10   77.3    13    4.1   266      6.3     0.00       0     357    855.3   84.5
 205   21:20   76.8    14    3.2   262      5.4     0.00       0     359    855.3   84.3
 205   21:30   75.4    17    2.8   290      4.6     0.00       0     360    855.4   84.1
 205   21:40   73.8    19    2.6   277      4.0     0.00       0     361    855.5   83.9
 205   21:50   73.3    20    1.9   279      3.0     0.00       0     360    855.7   83.8
 205   22:00   72.9    22    1.8   307      2.6     0.00       0     359    855.8   83.6
 205   22:10   71.9    24    0.8   309      2.4     0.00       0     358    855.9   83.4
 205   22:20   70.3    26    1.6   275      3.7     0.00       0     355    856.0   83.3
 205   22:30   69.7    27    1.5     4      3.5     0.00       0     352    856.1   83.1
 205   22:40   68.3    30    0.9     3      2.5     0.00       0     349    856.3   82.9
 205   22:50   67.7    30    1.1   342      2.9     0.00       0     346    856.4   82.8
 205   23:00   67.2    30    0.8   282      2.4     0.00       0     346    856.5   82.6
 205   23:10   66.3    34    2.0   324      2.7     0.00       0     342    856.6   82.4
 205   23:20   65.7    34    2.0   280      4.5     0.00       0     344    856.6   82.3
 205   23:30   67.4    32    3.3   298      5.0     0.00       0     343    856.7   82.1
 205   23:40   67.3    32    3.0   274      6.1     0.00       0     344    856.7   81.9
 205   23:50   67.6    32    2.5   277      4.7     0.00       0     344    856.7   81.8
 206    0:00   66.3    33    2.8   311      4.8     0.00       0     342    856.7   81.6
 206    0:10   64.4    34    0.5   306      3.8     0.00       0     338    856.8   81.4
 206    0:20   63.9    34    0.0   224      0.8     0.00       0     340    856.9   81.3
 206    0:30   63.7    35    1.0   112      2.4     0.00       0     338    857.0   81.1
 206    0:40   63.4    34    2.0   290      3.9     0.00       0     338    857.1   81.0
 206    0:50   64.4    32    2.6   260      4.0     0.00       0     338    857.2   80.8
 206    1:00   65.0    31    2.7   248      4.7     0.00       0     335    857.2   80.7
 206    1:10   64.4    32    0.4   238      2.9     0.00       0     338    857.2   80.5
 206    1:20   63.7    33    0.7   212      2.3     0.00       0     338    857.2   80.4
 206    1:30   63.5    34    1.9   256      3.0     0.00       0     332    857.3   80.2
 206    1:40   62.7    34    0.5   328      3.1     0.00       0     334    857.3   80.1
 206    1:50   61.9    38    1.7   354      3.6     0.00       0     332    857.4   79.9
 206    2:00   61.0    38    0.3   304      2.2     0.00       0     330    857.6   79.8
 206    2:10   60.2    39    1.4   279      3.6     0.00       0     328    857.6   79.6
 206    2:20   60.5    39    2.2   279      3.4     0.00       0     328    857.6   79.5
 206    2:30   60.1    42    2.3   231      6.0     0.00       0     326    857.7   79.4
 206    2:40   61.2    40    3.7   244      6.7     0.00       0     323    857.7   79.2
 206    2:50   61.2    39    1.9   255      4.1     0.00       0     323    857.7   79.1
 206    3:00   60.7    40    1.8   298      2.8     0.00       0     322    857.8   78.9
 206    3:10   59.9    42    1.1   301      2.5     0.00       0     324    857.8   78.8
 206    3:20   58.6    44    1.6   308      2.4     0.00       0     324    857.9   78.7
 206    3:30   58.7    44    1.7   287      3.7     0.00       0     322    858.0   78.5
 206    3:40   59.4    42    3.0   274      5.8     0.00       0     318    858.0   78.4
 206    3:50   59.0    43    2.1   290      4.8     0.00       0     318    858.0   78.3
 206    4:00   58.0    45    0.0     0      0.0     0.00       0     320    858.1   78.1
 206    4:10   57.1    46    1.2   284      3.1     0.00       0     316    858.2   78.0
 206    4:20   56.2    50    1.3     4      2.6     0.00       0     316    858.3   77.9
 206    4:30   55.7    50    0.6   288      2.6     0.00       0     312    858.5   77.7
 206    4:40   55.4    50    2.4   321      4.0     0.00       1     311    858.5   77.6
 206    4:50   54.9    51    1.4   320      2.0     0.00       2     311    858.7   77.5
 206    5:00   54.4    53    0.0     0      0.0     0.00       6     309    858.8   77.4
 206    5:10   54.2    53    0.1   294      0.9     0.00      14     307    859.0   77.2
 206    5:20   55.8    51    0.7   288      2.9     0.00      34     311    859.1   77.1
 206    5:30   58.2    47    1.9   267      3.9     0.00      61     313    859.0   77.0
 206    5:40   59.9    44    1.2   274      3.1     0.00      97     314    858.9   76.9
 206    5:50   60.9    42    1.9   268      3.5     0.00     132     317    858.7   76.7
 206    6:00   62.2    41    1.7   255      3.4     0.00     162     322    858.5   76.6
 206    6:10   62.5    40    3.0   249      4.9     0.00     194     326    858.4   76.5
 206    6:20   63.6    38    1.8   266      3.7     0.00     226     326    858.3   76.4
 206    6:30   64.4    37    2.6   268      3.8     0.00     260     332    858.2   76.3
 206    6:40   65.6    35    1.8   250      4.9     0.00     295     332    858.1   76.2
 206    6:50   67.6    33    0.4   243      2.0     0.00     328     336    857.9   76.1
 206    7:00   70.2    31    0.5    73      2.2     0.00     359     343    857.8   76.0
 206    7:10   71.0    30    0.6    79      2.2     0.00     393     344    857.7   76.0
 206    7:20   72.1    29    0.7    82      2.4     0.00     427     349    857.5   76.0
 206    7:30   74.6    27    0.3   190      1.7     0.00     462     350    857.4   76.0
 206    7:40   75.4    27    0.6    31      2.5     0.00     496     356    857.2   76.0
 206    7:50   75.1    28    0.9    12      3.0     0.00     529     358    857.0   76.0
 206    8:00   74.7    28    1.3   351      3.4     0.00     562     361    856.8   76.1
 206    8:10   76.2    26    1.4    17      3.5     0.00     595     362    856.7   76.2

Return to Reno (UNR), Nevada graphs page.


Western Regional Climate Center,wrcc@dri.edu